createdAt,value
2023-04-22T00:01:33.496Z,38.97
2023-04-22T00:06:36.050Z,38.83
2023-04-22T00:11:38.070Z,38.10
2023-04-22T00:16:40.227Z,33.72
2023-04-22T00:21:42.448Z,40.00
2023-04-22T00:26:44.460Z,37.00
2023-04-22T00:31:46.522Z,36.60
2023-04-22T00:36:48.901Z,43.08
2023-04-22T00:41:51.035Z,37.63
2023-04-22T00:46:53.378Z,39.22
2023-04-22T00:51:55.544Z,98.78
2023-04-22T00:56:58.827Z,101.18
2023-04-22T01:02:01.304Z,58.55
2023-04-22T01:07:03.370Z,84.30
2023-04-22T01:12:06.140Z,170.48
2023-04-22T01:17:10.567Z,229.95
2023-04-22T01:22:14.217Z,122.10
2023-04-22T01:27:16.507Z,113.93
2023-04-22T01:32:18.775Z,167.27
2023-04-22T01:37:21.388Z,157.52
2023-04-22T01:42:24.194Z,167.68
2023-04-22T01:47:27.505Z,119.75
2023-04-22T01:52:30.221Z,108.57
2023-04-22T01:57:32.258Z,146.43
2023-04-22T02:02:36.023Z,55.08
2023-04-22T02:07:38.283Z,43.03
2023-04-22T02:12:40.288Z,44.70
2023-04-22T02:17:43.437Z,47.45
2023-04-22T02:22:47.751Z,55.70
2023-04-22T02:27:50.106Z,53.17
2023-04-22T02:32:52.688Z,37.30
2023-04-22T02:37:54.965Z,39.90
2023-04-22T02:43:00.044Z,37.40
2023-04-22T02:48:03.852Z,36.95
2023-04-22T02:53:06.261Z,35.30
2023-04-22T02:58:08.941Z,39.10
2023-04-22T03:03:11.856Z,36.97
2023-04-22T03:08:14.049Z,38.65
2023-04-22T03:13:16.064Z,47.17
2023-04-22T03:18:19.018Z,52.10
2023-04-22T03:23:21.264Z,53.85
2023-04-22T03:28:23.655Z,60.33
2023-04-22T03:33:26.349Z,70.10
2023-04-22T03:38:33.088Z,74.47
2023-04-22T03:43:36.075Z,62.65
2023-04-22T03:48:43.519Z,60.55
2023-04-22T03:53:53.495Z,48.90
2023-04-22T03:58:58.790Z,50.35
2023-04-22T04:04:02.493Z,48.45
2023-04-22T04:14:14.672Z,48.03
2023-04-22T04:19:23.994Z,46.30
2023-04-22T04:24:26.609Z,47.55
2023-04-22T04:29:35.883Z,52.13
2023-04-22T04:34:47.516Z,51.30
2023-04-22T04:39:52.043Z,82.40
2023-04-22T04:44:58.366Z,53.17
2023-04-22T04:50:05.040Z,50.95
2023-04-22T04:55:08.466Z,51.20
2023-04-22T05:00:11.572Z,51.22
2023-04-22T05:05:14.031Z,44.47
2023-04-22T05:10:18.342Z,47.38
2023-04-22T05:15:21.109Z,41.75
2023-04-22T05:20:23.486Z,41.97
2023-04-22T05:25:25.627Z,43.70
2023-04-22T05:30:34.635Z,44.90
2023-04-22T05:35:37.380Z,47.60
2023-04-22T05:40:40.444Z,49.42
2023-04-22T05:45:45.375Z,49.63
2023-04-22T05:50:50.071Z,47.28
2023-04-22T05:55:57.919Z,46.18
2023-04-22T06:01:00.288Z,45.58
2023-04-22T06:06:20.778Z,44.83
2023-04-22T06:11:23.194Z,45.25
2023-04-22T06:16:25.288Z,42.70
2023-04-22T06:21:28.506Z,46.17
2023-04-22T06:26:32.254Z,41.20
2023-04-22T06:31:34.636Z,37.13
2023-04-22T06:36:39.722Z,40.17
2023-04-22T06:41:44.290Z,37.35
2023-04-22T06:47:02.167Z,38.00
2023-04-22T06:52:24.090Z,33.50
2023-04-22T06:57:29.300Z,32.53
2023-04-22T07:02:31.463Z,34.42
2023-04-22T07:07:33.742Z,31.20
2023-04-22T07:12:36.663Z,30.10
2023-04-22T07:17:38.883Z,30.55
2023-04-22T07:22:41.080Z,25.80
2023-04-22T07:27:43.192Z,27.73
2023-04-22T07:32:47.568Z,27.83
2023-04-22T07:37:51.067Z,23.52
2023-04-22T07:42:53.250Z,23.30
2023-04-22T07:47:55.281Z,23.30
2023-04-22T07:52:57.436Z,21.48
2023-04-22T07:58:01.261Z,22.40
2023-04-22T08:03:03.832Z,22.30
2023-04-22T08:08:06.226Z,16.05
2023-04-22T08:13:08.375Z,19.23
2023-04-22T08:18:10.878Z,16.23
2023-04-22T08:23:12.936Z,15.60
2023-04-22T08:28:15.091Z,16.20
2023-04-22T08:33:17.334Z,14.77
2023-04-22T08:38:19.562Z,15.50
2023-04-22T08:43:22.092Z,17.48
2023-04-22T08:48:24.134Z,16.13
2023-04-22T08:53:26.336Z,16.73
2023-04-22T08:58:28.785Z,14.95
2023-04-22T09:03:31.718Z,14.60
2023-04-22T09:08:34.111Z,16.65
2023-04-22T09:13:36.237Z,13.60
2023-04-22T09:18:45.981Z,15.07
2023-04-22T09:23:50.337Z,16.73
2023-04-22T09:28:58.643Z,15.70
2023-04-22T09:34:01.599Z,14.38
2023-04-22T09:39:09.616Z,18.25
2023-04-22T09:44:15.934Z,14.52
2023-04-22T09:49:18.080Z,13.63
2023-04-22T09:54:20.133Z,12.88
2023-04-22T09:59:29.877Z,14.77
2023-04-22T10:04:32.117Z,13.13
2023-04-22T10:09:34.751Z,12.05
2023-04-22T10:14:37.008Z,12.75
2023-04-22T10:19:40.255Z,10.82
2023-04-22T10:24:43.478Z,12.80
2023-04-22T10:29:45.608Z,13.00
2023-04-22T10:34:49.486Z,10.50
2023-04-22T10:40:30.249Z,12.85
2023-04-22T10:45:32.399Z,12.10
2023-04-22T10:50:34.479Z,12.75
2023-04-22T10:55:51.520Z,15.23
2023-04-22T11:00:59.777Z,14.63
2023-04-22T11:06:19.419Z,14.80
2023-04-22T11:11:21.582Z,17.85
2023-04-22T11:16:24.560Z,15.77
2023-04-22T11:21:27.741Z,16.70
2023-04-22T11:26:36.113Z,18.55
2023-04-22T11:31:38.519Z,18.13
2023-04-22T11:36:45.360Z,13.25
2023-04-22T11:41:47.408Z,21.83
2023-04-22T11:46:49.474Z,19.00
2023-04-22T11:51:53.901Z,19.30
2023-04-22T11:56:56.008Z,20.60
2023-04-22T12:01:58.036Z,20.02
2023-04-22T12:07:03.838Z,17.77
2023-04-22T12:12:06.005Z,19.00
2023-04-22T12:17:12.134Z,17.60
2023-04-22T12:22:27.240Z,16.75
2023-04-22T12:27:29.358Z,18.08
2023-04-22T12:32:31.422Z,17.00
2023-04-22T12:37:33.524Z,18.17
2023-04-22T12:42:36.060Z,19.70
2023-04-22T12:47:38.263Z,17.15
2023-04-22T12:52:40.425Z,20.98
2023-04-22T12:57:42.604Z,20.13
2023-04-22T13:02:46.593Z,18.92
2023-04-22T13:07:56.434Z,23.20
2023-04-22T13:13:16.747Z,21.50
2023-04-22T13:18:22.063Z,22.17
2023-04-22T13:23:25.730Z,23.35
2023-04-22T13:28:28.390Z,26.67
2023-04-22T13:33:30.821Z,20.15
2023-04-22T13:38:33.023Z,22.05
2023-04-22T13:43:35.274Z,24.17
2023-04-22T13:48:37.322Z,24.95
2023-04-22T13:53:39.422Z,23.35
2023-04-22T13:58:42.502Z,22.27
2023-04-22T14:03:45.664Z,23.20
2023-04-22T14:08:47.867Z,19.58
2023-04-22T14:13:49.912Z,22.25
2023-04-22T14:18:52.122Z,21.38
2023-04-22T14:23:54.920Z,21.85
2023-04-22T14:28:57.063Z,23.83
2023-04-22T14:33:59.509Z,25.58
2023-04-22T14:39:01.548Z,26.15
2023-04-22T14:44:03.581Z,29.10
2023-04-22T14:49:05.621Z,31.67
2023-04-22T14:54:07.768Z,31.90
2023-04-22T14:59:09.753Z,25.35
2023-04-22T15:04:13.643Z,32.47
2023-04-22T15:09:15.839Z,34.67
2023-04-22T15:14:17.964Z,32.28
2023-04-22T15:19:20.062Z,33.63
2023-04-22T15:24:22.386Z,28.92
2023-04-22T15:29:24.460Z,31.80
2023-04-22T15:34:26.469Z,31.98
2023-04-22T15:39:28.526Z,33.05
2023-04-22T15:44:30.810Z,26.65
2023-04-22T15:49:32.851Z,33.85
2023-04-22T15:54:35.154Z,31.00
2023-04-22T15:59:37.514Z,31.25
2023-04-22T16:04:39.764Z,29.83
2023-04-22T16:09:42.110Z,33.35
2023-04-22T16:14:44.395Z,31.60
2023-04-22T16:19:46.453Z,30.65
2023-04-22T16:24:48.516Z,33.08
2023-04-22T16:29:50.608Z,30.75
2023-04-22T16:34:52.654Z,34.63
2023-04-22T16:39:55.248Z,30.55
2023-04-22T16:44:57.754Z,29.23
2023-04-22T16:49:59.860Z,30.40
2023-04-22T16:55:02.407Z,29.50
2023-04-22T17:00:05.888Z,34.15
2023-04-22T17:05:08.388Z,30.70
2023-04-22T17:10:10.761Z,30.85
2023-04-22T17:15:12.804Z,28.95
2023-04-22T17:20:14.827Z,26.65
2023-04-22T17:25:16.989Z,33.17
2023-04-22T17:30:19.226Z,29.27
2023-04-22T17:35:21.371Z,24.35
2023-04-22T17:40:23.978Z,27.73
2023-04-22T17:45:26.056Z,29.98
2023-04-22T17:50:28.243Z,29.05
2023-04-22T17:55:32.402Z,28.05
2023-04-22T18:00:36.391Z,32.30
2023-04-22T18:05:43.063Z,31.83
2023-04-22T18:10:45.197Z,34.83
2023-04-22T18:15:47.335Z,33.67
2023-04-22T18:20:49.643Z,34.70
2023-04-22T18:25:53.854Z,33.88
2023-04-22T18:30:55.881Z,38.60
2023-04-22T18:35:59.759Z,40.90
2023-04-22T18:41:01.876Z,41.95
2023-04-22T18:46:04.385Z,43.20
2023-04-22T18:51:06.959Z,42.00
2023-04-22T18:56:09.018Z,40.78
2023-04-22T19:01:11.407Z,45.25
2023-04-22T19:06:14.212Z,46.10
2023-04-22T19:11:17.118Z,55.00
2023-04-22T19:16:19.266Z,51.78
2023-04-22T19:21:21.512Z,53.60
2023-04-22T19:26:23.547Z,55.25
2023-04-22T19:31:27.755Z,67.25
2023-04-22T19:36:29.919Z,68.18
2023-04-22T19:41:33.455Z,63.08
2023-04-22T19:46:36.841Z,80.53
2023-04-22T19:51:40.941Z,65.45
2023-04-22T19:56:43.307Z,66.68
2023-04-22T20:01:45.775Z,62.63
2023-04-22T20:06:49.897Z,62.72
2023-04-22T20:11:53.539Z,68.53
2023-04-22T20:16:55.747Z,72.72
2023-04-22T20:21:58.729Z,73.22
2023-04-22T20:27:01.097Z,83.38
2023-04-22T20:32:06.324Z,87.60
2023-04-22T20:37:10.317Z,91.70
2023-04-22T20:42:12.632Z,93.30
2023-04-22T20:47:16.302Z,84.75
2023-04-22T20:52:19.116Z,83.53
2023-04-22T20:57:21.169Z,86.53
2023-04-22T21:02:24.573Z,86.80
2023-04-22T21:07:30.547Z,102.13
2023-04-22T21:12:32.877Z,106.55
2023-04-22T21:17:35.458Z,113.07
2023-04-22T21:22:37.947Z,114.65
2023-04-22T21:27:40.676Z,124.43
2023-04-22T21:32:42.761Z,122.97
2023-04-22T21:37:44.998Z,119.22
2023-04-22T21:42:48.877Z,124.10
2023-04-22T21:47:51.395Z,126.85
2023-04-22T21:52:53.461Z,116.18
2023-04-22T21:57:55.659Z,117.00
2023-04-22T22:02:57.839Z,112.90
2023-04-22T22:08:00.562Z,108.35
2023-04-22T22:13:02.568Z,113.68
2023-04-22T22:18:04.921Z,107.43
2023-04-22T22:23:06.996Z,104.68
2023-04-22T22:28:09.123Z,105.85
2023-04-22T22:33:11.471Z,103.72
2023-04-22T22:38:13.757Z,108.03
2023-04-22T22:43:16.102Z,100.65
2023-04-22T22:48:18.148Z,98.85
2023-04-22T22:53:21.203Z,97.80
2023-04-22T22:58:23.371Z,90.32
2023-04-22T23:03:25.522Z,89.75
2023-04-22T23:08:27.659Z,81.03
2023-04-22T23:13:29.738Z,81.47
2023-04-22T23:18:32.269Z,79.75
2023-04-22T23:23:36.844Z,81.50
2023-04-22T23:28:39.105Z,76.82
2023-04-22T23:33:42.286Z,71.72
2023-04-22T23:38:44.315Z,71.30
2023-04-22T23:43:48.029Z,70.35
2023-04-22T23:48:50.059Z,71.50
2023-04-22T23:53:52.043Z,66.63
2023-04-22T23:58:54.325Z,66.53
